Time;durP1;ratioP1;P1;durP2;ratioP2;P2;SDS_P1;SDS_P2;PMS_P1;PMS_P2;Temp;Humidity;BMP_temperature;BMP_pressure;BME280_temperature;BME280_humidity;BME280_pressure;Samples;Min_cycle;Max_cycle;Signal;HPM_P1;HPM_P2
2021/06/18 00:01:00;;;;;;;4.35;2.38;;;;;;;21.35;58.91;100477.19;6338014;22;20311;-70
2021/06/18 00:03:29;;;;;;;2.85;2.65;;;;;;;21.41;59.27;100491.66;6338077;22;20431;-69
2021/06/18 00:06:02;;;;;;;4.57;2.83;;;;;;;21.27;58.90;100475.69;6337523;22;19998;-69
2021/06/18 00:08:33;;;;;;;2.75;2.53;;;;;;;21.12;59.33;100479.97;6339639;22;19998;-70
2021/06/18 00:11:04;;;;;;;3.05;2.75;;;;;;;21.14;58.88;100478.31;6337862;22;20006;-69
2021/06/18 00:13:32;;;;;;;2.70;2.50;;;;;;;21.11;59.34;100472.72;6338351;22;20059;-69
2021/06/18 00:16:00;;;;;;;4.15;2.80;;;;;;;21.15;59.46;100467.81;6337998;22;20010;-70
2021/06/18 00:18:28;;;;;;;2.92;2.60;;;;;;;21.16;59.31;100458.91;6337900;22;20423;-70
2021/06/18 00:20:57;;;;;;;3.08;2.78;;;;;;;21.22;59.63;100462.03;6338331;22;20061;-69
2021/06/18 00:23:25;;;;;;;3.15;2.65;;;;;;;21.17;59.24;100466.16;6338222;22;20075;-69
2021/06/18 00:25:59;;;;;;;3.78;2.53;;;;;;;21.08;59.94;100467.91;6337789;22;19999;-69
2021/06/18 00:28:31;;;;;;;4.53;2.90;;;;;;;21.06;60.83;100459.06;6338161;22;19999;-70
2021/06/18 00:31:01;;;;;;;3.10;2.75;;;;;;;21.02;59.75;100458.31;6337835;22;20117;-70
2021/06/18 00:33:32;;;;;;;3.30;2.83;;;;;;;20.96;59.96;100448.72;6338219;22;20011;-69
2021/06/18 00:35:58;;;;;;;3.58;2.97;;;;;;;20.78;60.28;100424.34;6337840;22;20381;-70
2021/06/18 00:38:26;;;;;;;4.40;3.05;;;;;;;21.01;60.61;100451.84;6337910;22;20011;-70
2021/06/18 00:41:00;;;;;;;4.25;2.85;;;;;;;20.97;60.37;100455.97;6337564;22;20098;-69
2021/06/18 00:43:27;;;;;;;3.25;2.72;;;;;;;20.95;60.49;100441.47;6338149;22;20006;-71
2021/06/18 00:45:55;;;;;;;2.90;2.70;;;;;;;20.93;61.00;100439.03;6337736;22;20030;-69
2021/06/18 00:48:22;;;;;;;3.30;3.03;;;;;;;20.85;60.74;100437.56;6338170;22;20370;-70
2021/06/18 00:50:51;;;;;;;3.47;2.67;;;;;;;20.89;61.32;100439.13;6337771;22;20014;-69
2021/06/18 00:53:19;;;;;;;2.67;2.47;;;;;;;20.83;61.16;100437.19;6338050;22;20445;-71
2021/06/18 00:55:49;;;;;;;4.80;3.00;;;;;;;20.92;61.31;100428.97;6338066;22;20430;-70
2021/06/18 00:58:20;;;;;;;2.95;2.65;;;;;;;20.91;61.69;100422.50;6338088;22;20003;-69
2021/06/18 01:00:49;;;;;;;2.90;2.60;;;;;;;20.97;61.70;100416.38;6338395;22;20418;-69
2021/06/18 01:03:14;;;;;;;5.18;2.88;;;;;;;20.94;61.74;100412.38;6337709;22;20060;-70
2021/06/18 01:05:42;;;;;;;2.95;2.65;;;;;;;21.05;62.42;100410.19;6338313;22;20007;-70
2021/06/18 01:08:16;;;;;;;2.80;2.60;;;;;;;21.09;61.42;100401.59;6312000;22;20007;-70
2021/06/18 01:10:52;;;;;;;3.30;2.78;;;;;;;21.13;61.72;100413.69;6337748;22;20007;-69
2021/06/18 01:13:33;;;;;;;3.55;2.95;;;;;;;21.16;61.79;100418.47;6338406;22;20014;-69
2021/06/18 01:16:16;;;;;;;3.83;3.28;;;;;;;21.21;62.64;100422.84;6338384;22;20034;-70
2021/06/18 01:18:50;;;;;;;4.18;3.33;;;;;;;21.07;63.98;100430.34;6338127;22;20003;-69
2021/06/18 01:21:20;;;;;;;4.53;3.45;;;;;;;21.01;65.03;100429.22;6338274;22;20292;-70
2021/06/18 01:24:16;;;;;;;4.10;3.40;;;;;;;20.97;65.19;100422.81;6339526;22;20003;-70
2021/06/18 01:27:00;;;;;;;5.05;4.18;;;;;;;20.99;65.98;100425.25;6340222;22;20030;-70
2021/06/18 01:29:29;;;;;;;;;;;;;;;20.91;66.12;100419.69;6340767;22;20322;-70
2021/06/18 01:31:58;;;;;;;3.92;3.58;;;;;;;20.88;66.83;100414.91;6340223;22;19928;-70
2021/06/18 01:34:27;;;;;;;3.83;3.53;;;;;;;20.93;66.78;100417.25;6339464;22;20091;-70
2021/06/18 01:36:59;;;;;;;3.85;3.53;;;;;;;20.95;66.69;100421.66;6340155;22;20288;-70
2021/06/18 01:39:31;;;;;;;3.80;3.38;;;;;;;20.99;66.26;100414.72;6339441;22;20010;-70
2021/06/18 01:42:02;;;;;;;5.18;3.47;;;;;;;20.91;66.71;100407.56;6339042;22;20015;-70
2021/06/18 01:44:29;;;;;;;4.03;3.47;;;;;;;20.85;67.31;100421.41;6314107;22;20307;-70
2021/06/18 01:46:56;;;;;;;4.30;3.83;;;;;;;20.58;66.52;100421.41;6339314;22;20002;-70
2021/06/18 01:49:23;;;;;;;3.22;2.92;;;;;;;20.35;66.11;100422.09;6339314;22;20035;-69
2021/06/18 01:51:55;;;;;;;4.32;3.45;;;;;;;20.27;66.04;100420.56;6339274;22;20435;-69
2021/06/18 01:54:27;;;;;;;5.18;4.78;;;;;;;20.22;65.70;100425.88;6339682;22;20002;-69
2021/06/18 01:56:57;;;;;;;4.60;4.10;;;;;;;20.22;66.63;100428.72;6339233;22;19999;-69
2021/06/18 01:59:31;;;;;;;4.32;4.03;;;;;;;20.14;67.35;100425.19;6339223;22;20015;-69
2021/06/18 02:01:58;;;;;;;3.75;3.45;;;;;;;20.22;67.74;100426.69;6335473;22;20386;-69
2021/06/18 02:04:27;;;;;;;4.30;3.95;;;;;;;20.42;67.85;100433.28;6339568;22;20326;-70
2021/06/18 02:06:57;;;;;;;4.22;3.83;;;;;;;20.45;67.31;100425.97;6339026;22;20010;-70
2021/06/18 02:09:28;;;;;;;3.90;3.60;;;;;;;20.41;68.01;100430.91;6339603;22;20063;-70
2021/06/18 02:11:59;;;;;;;3.38;3.10;;;;;;;20.71;67.27;100429.28;6339816;22;20011;-70
2021/06/18 02:14:28;;;;;;;5.70;4.63;;;;;;;20.56;66.96;100431.50;6339433;22;20072;-70
2021/06/18 02:17:01;;;;;;;4.03;3.63;;;;;;;20.51;67.06;100424.34;6339731;22;20081;-71
2021/06/18 02:19:28;;;;;;;4.40;3.97;;;;;;;20.51;67.51;100429.19;6339428;22;20006;-70
2021/06/18 02:21:56;;;;;;;4.50;3.53;;;;;;;20.69;67.05;100434.56;6339740;22;20380;-70
2021/06/18 02:24:30;;;;;;;3.25;3.00;;;;;;;20.57;66.64;100436.75;6339034;22;20006;-71
2021/06/18 02:26:58;;;;;;;4.88;3.35;;;;;;;20.64;66.23;100441.50;6339230;22;20003;-70
2021/06/18 02:29:26;;;;;;;2.88;2.72;;;;;;;20.59;65.55;100441.97;6339394;22;20330;-70
2021/06/18 02:31:58;;;;;;;5.20;4.55;;;;;;;20.64;65.12;100447.97;6339034;22;20086;-70
2021/06/18 02:34:26;;;;;;;8.60;5.85;;;;;;;20.62;65.55;100446.78;6339206;22;20076;-69
2021/06/18 02:36:57;;;;;;;5.05;4.65;;;;;;;20.52;65.88;100444.91;6338793;22;20010;-69
2021/06/18 02:39:26;;;;;;;7.28;4.32;;;;;;;20.53;66.12;100457.81;6338961;22;20045;-70
2021/06/18 02:41:54;;;;;;;3.60;3.30;;;;;;;20.38;66.15;100438.19;6338482;22;20037;-71
2021/06/18 02:44:25;;;;;;;6.03;3.92;;;;;;;20.56;66.15;100443.66;6338882;22;20414;-70
2021/06/18 02:47:09;;;;;;;4.75;4.22;;;;;;;20.56;65.89;100442.81;6338764;22;20418;-70
2021/06/18 02:49:51;;;;;;;5.43;4.88;;;;;;;20.54;65.89;100436.78;6338796;22;20011;-70
2021/06/18 02:52:46;;;;;;;6.05;5.55;;;;;;;20.69;65.63;100435.38;6338759;22;20009;-70
2021/06/18 02:55:21;;;;;;;5.07;4.65;;;;;;;20.66;65.69;100433.38;6335235;22;20326;-71
2021/06/18 02:58:01;;;;;;;5.20;4.70;;;;;;;20.69;64.31;100446.69;6338823;22;20445;-70
2021/06/18 03:00:33;;;;;;;4.32;3.63;;;;;;;20.64;64.86;100450.78;6338742;22;20007;-69
2021/06/18 03:03:03;;;;;;;4.47;4.03;;;;;;;20.59;64.39;100453.28;6341123;22;20059;-70
2021/06/18 03:05:30;;;;;;;5.53;5.10;;;;;;;20.57;64.85;100450.09;6338678;22;20332;-70
2021/06/18 03:08:02;;;;;;;4.72;4.32;;;;;;;20.62;63.26;100463.75;6339447;22;20011;-70
2021/06/18 03:10:35;;;;;;;8.00;7.20;;;;;;;20.55;62.59;100463.84;6339067;22;20064;-70
2021/06/18 03:13:08;;;;;;;6.82;6.22;;;;;;;20.58;64.56;100463.78;6338382;22;20011;-70
2021/06/18 03:15:38;;;;;;;9.30;8.40;;;;;;;20.54;62.53;100471.50;6338681;22;20010;-70
2021/06/18 03:18:11;;;;;;;4.50;4.10;;;;;;;20.53;62.74;100466.28;6338649;22;20014;-71
2021/06/18 03:20:42;;;;;;;3.63;3.33;;;;;;;20.50;63.11;100453.78;6338643;22;19999;-71
2021/06/18 03:23:11;;;;;;;9.05;8.15;;;;;;;20.56;63.53;100473.91;6338978;22;20296;-71
2021/06/18 03:25:38;;;;;;;9.35;8.45;;;;;;;20.65;62.82;100474.19;6340455;22;19999;-70
2021/06/18 03:28:09;;;;;;;9.10;7.57;;;;;;;20.66;62.31;100475.78;6338613;22;20046;-71
2021/06/18 03:30:36;;;;;;;6.43;5.93;;;;;;;20.47;62.74;100479.31;6338497;22;20007;-70
2021/06/18 03:33:07;;;;;;;5.28;4.78;;;;;;;20.47;63.80;100479.31;6338538;22;20002;-70
2021/06/18 03:35:33;;;;;;;6.93;5.85;;;;;;;20.58;64.46;100477.13;6333818;22;20064;-70
2021/06/18 03:38:03;;;;;;;5.30;4.75;;;;;;;20.53;63.54;100478.41;6338499;22;20034;-70
2021/06/18 03:40:30;;;;;;;5.80;5.28;;;;;;;20.54;63.08;100487.69;6338012;22;20026;-69
2021/06/18 03:42:56;;;;;;;11.98;10.93;;;;;;;20.55;63.12;100492.91;6310904;22;20032;-69
2021/06/18 03:45:23;;;;;;;14.52;13.23;;;;;;;20.50;63.66;100489.75;6310297;22;20003;-70
2021/06/18 03:47:50;;;;;;;26.77;24.27;;;;;;;20.56;63.53;100490.88;6311127;22;20091;-69
2021/06/18 03:50:22;;;;;;;25.33;22.70;;;;;;;20.61;63.23;100484.75;6310719;22;20007;-70
2021/06/18 03:52:53;;;;;;;23.15;20.95;;;;;;;20.67;63.26;100485.91;6311430;22;20410;-70
2021/06/18 03:55:19;;;;;;;27.38;24.77;;;;;;;20.69;63.21;100474.97;6310791;22;20010;-70
2021/06/18 03:57:51;;;;;;;18.85;16.33;;;;;;;20.78;63.38;100477.28;6339036;22;20007;-71
2021/06/18 04:00:21;;;;;;;30.20;27.15;;;;;;;20.89;62.57;100487.19;6310846;22;20073;-71
2021/06/18 04:02:49;;;;;;;27.08;24.33;;;;;;;21.26;61.61;100491.09;6310800;22;20068;-71
2021/06/18 04:05:17;;;;;;;24.00;21.80;;;;;;;21.60;59.85;100499.44;6310790;22;20003;-70
2021/06/18 04:07:52;;;;;;;14.32;12.30;;;;;;;21.84;58.88;100514.38;6285319;22;20011;-71
2021/06/18 04:10:21;;;;;;;11.15;10.05;;;;;;;22.20;58.51;100508.06;6310753;22;20003;-71
2021/06/18 04:12:53;;;;;;;17.25;15.65;;;;;;;22.40;58.07;100514.53;6310717;22;20002;-70
2021/06/18 04:15:28;;;;;;;19.83;15.07;;;;;;;22.69;56.67;100513.94;6310508;22;20011;-71
2021/06/18 04:17:58;;;;;;;20.02;18.05;;;;;;;23.11;55.72;100519.94;6310434;22;20233;-69
2021/06/18 04:20:25;;;;;;;13.35;12.02;;;;;;;23.44;54.69;100513.06;6310664;22;20457;-70
2021/06/18 04:22:55;;;;;;;11.05;9.10;;;;;;;23.74;54.16;100511.09;6310676;22;20014;-71
2021/06/18 04:25:27;;;;;;;8.13;7.20;;;;;;;24.02;53.37;100518.88;6309328;22;20002;-71
2021/06/18 04:27:58;;;;;;;5.97;4.30;;;;;;;24.43;52.33;100520.19;6311224;22;20025;-69
2021/06/18 04:30:27;;;;;;;8.65;3.90;;;;;;;24.74;51.35;100511.97;6311678;22;20304;-70
2021/06/18 04:32:58;;;;;;;3.50;3.10;;;;;;;24.94;51.09;100511.78;6310393;22;20079;-70
2021/06/18 04:35:24;;;;;;;3.75;3.45;;;;;;;25.21;50.46;100513.41;6310607;22;20448;-70
2021/06/18 04:37:50;;;;;;;4.35;3.50;;;;;;;25.19;50.28;100501.66;6310521;22;20093;-70
2021/06/18 04:40:16;;;;;;;4.43;3.65;;;;;;;25.44;50.29;100503.72;6292979;22;326227;-69
2021/06/18 04:42:42;;;;;;;3.97;3.67;;;;;;;25.82;49.09;100507.28;6287656;22;20015;-70
2021/06/18 04:45:12;;;;;;;3.67;3.33;;;;;;;25.98;48.81;100514.88;6311669;22;20014;-71
2021/06/18 04:47:40;;;;;;;5.38;3.15;;;;;;;26.33;47.93;100520.56;6339830;22;20006;-71
2021/06/18 04:50:06;;;;;;;3.80;3.50;;;;;;;26.72;47.33;100516.28;6311660;22;20002;-71
2021/06/18 04:52:36;;;;;;;5.25;3.60;;;;;;;26.94;47.15;100521.94;6311572;22;20037;-70
2021/06/18 04:55:07;;;;;;;4.00;3.55;;;;;;;27.20;46.07;100528.28;6311785;22;20064;-70
2021/06/18 04:57:36;;;;;;;3.47;3.08;;;;;;;27.37;45.61;100523.91;6311232;22;20003;-70
2021/06/18 05:00:06;;;;;;;4.18;3.75;;;;;;;27.44;45.95;100528.53;6311693;22;20007;-71
2021/06/18 05:02:34;;;;;;;4.80;3.40;;;;;;;27.31;46.88;100525.78;6311596;22;20009;-71
2021/06/18 05:05:03;;;;;;;5.03;4.03;;;;;;;27.96;45.87;100529.63;6311308;22;20010;-70
2021/06/18 05:07:31;;;;;;;4.38;3.42;;;;;;;28.40;45.00;100526.50;6311561;22;20029;-72
2021/06/18 05:10:02;;;;;;;4.43;3.20;;;;;;;28.24;46.24;100529.66;6311638;22;20085;-71
2021/06/18 05:12:30;;;;;;;3.10;2.90;;;;;;;28.11;47.24;100527.72;6311486;22;20010;-71
2021/06/18 05:15:01;;;;;;;4.32;3.00;;;;;;;28.35;46.89;100525.06;6311432;22;20015;-71
2021/06/18 05:17:30;;;;;;;4.75;3.42;;;;;;;28.56;46.37;100529.03;6310104;22;20018;-71
2021/06/18 05:20:02;;;;;;;4.22;3.30;;;;;;;28.69;46.33;100537.41;6310425;22;20011;-71
2021/06/18 05:22:32;;;;;;;7.22;3.72;;;;;;;28.10;48.43;100542.50;6312032;22;20057;-71
2021/06/18 05:24:58;;;;;;;4.07;3.67;;;;;;;28.85;46.48;100542.00;6309984;22;20011;-70
2021/06/18 05:27:26;;;;;;;3.85;3.42;;;;;;;29.35;45.67;100548.22;6309899;22;20151;-71
2021/06/18 05:29:58;;;;;;;4.38;3.40;;;;;;;29.21;45.45;100541.91;6310210;22;20007;-71
2021/06/18 05:32:23;;;;;;;2.83;2.63;;;;;;;29.44;46.02;100537.50;6309917;22;20368;-71
2021/06/18 05:34:52;;;;;;;7.10;2.78;;;;;;;29.51;46.36;100550.72;6309766;22;19999;-71
2021/06/18 05:37:18;;;;;;;5.63;2.50;;;;;;;29.45;46.39;100552.63;6309727;22;20038;-72
2021/06/18 05:39:56;;;;;;;5.13;2.40;;;;;;;30.01;45.11;100539.59;6310381;22;20011;-71
2021/06/18 05:42:27;;;;;;;3.92;2.70;;;;;;;30.10;44.93;100542.38;6332625;22;20105;-71
2021/06/18 05:44:56;;;;;;;3.72;2.70;;;;;;;29.99;44.62;100542.16;6335862;22;20030;-72
2021/06/18 05:47:25;;;;;;;3.17;2.72;;;;;;;30.45;43.63;100548.31;6336217;22;20018;-72
2021/06/18 05:49:54;;;;;;;3.13;2.83;;;;;;;30.62;43.02;100544.97;6336031;22;20049;-71
2021/06/18 05:52:23;;;;;;;3.92;2.63;;;;;;;30.84;42.55;100550.38;6335459;22;20007;-72
2021/06/18 05:54:54;;;;;;;4.80;2.65;;;;;;;29.59;45.01;100557.69;6335806;22;20030;-71
2021/06/18 05:57:23;;;;;;;3.20;2.90;;;;;;;29.68;45.28;100557.66;6336075;22;20056;-72
2021/06/18 05:59:52;;;;;;;4.82;2.75;;;;;;;29.84;44.63;100547.84;6335463;22;20090;-72
2021/06/18 06:02:22;;;;;;;5.53;3.47;;;;;;;30.42;43.05;100554.28;6335512;22;20010;-71
2021/06/18 06:04:50;;;;;;;4.68;4.22;;;;;;;30.67;42.71;100565.19;6335547;22;20026;-72
2021/06/18 06:07:21;;;;;;;5.47;3.80;;;;;;;30.48;42.31;100563.78;6337286;22;19999;-71
2021/06/18 06:09:52;;;;;;;4.05;2.92;;;;;;;30.62;42.48;100580.22;6337271;22;20013;-72
2021/06/18 06:12:23;;;;;;;3.78;2.70;;;;;;;30.56;42.91;100575.66;6337056;22;20028;-71
2021/06/18 06:14:52;;;;;;;4.53;2.22;;;;;;;30.89;41.52;100581.28;6337047;22;20006;-72
2021/06/18 06:17:20;;;;;;;4.25;2.72;;;;;;;30.99;41.05;100585.63;6337009;22;20081;-72
2021/06/18 06:19:51;;;;;;;3.05;2.40;;;;;;;30.36;41.14;100573.44;6338759;22;20002;-72
2021/06/18 06:22:23;;;;;;;3.35;2.40;;;;;;;29.59;43.65;100574.88;6339175;22;20006;-71
2021/06/18 06:24:48;;;;;;;2.65;2.38;;;;;;;30.27;42.40;100574.31;6337603;22;20132;-71
2021/06/18 06:27:14;;;;;;;3.75;2.72;;;;;;;29.91;42.61;100576.13;6336388;22;20382;-71
2021/06/18 06:29:45;;;;;;;6.65;2.28;;;;;;;29.67;43.48;100579.00;6336633;22;20295;-71
2021/06/18 06:32:14;;;;;;;2.88;2.47;;;;;;;29.90;43.38;100582.38;6336585;22;20010;-72
2021/06/18 06:34:43;;;;;;;5.82;3.10;;;;;;;29.38;44.01;100570.19;6338352;22;19998;-71
2021/06/18 06:37:14;;;;;;;4.70;2.95;;;;;;;29.80;43.29;100573.03;6336777;22;20426;-71
2021/06/18 06:39:40;;;;;;;2.75;2.22;;;;;;;30.16;42.86;100566.28;6336484;22;20018;-72
2021/06/18 06:42:09;;;;;;;5.60;2.67;;;;;;;30.67;41.24;100570.94;6336025;22;20358;-71
2021/06/18 06:44:35;;;;;;;5.63;2.75;;;;;;;29.69;43.02;100564.16;6336567;22;19998;-71
2021/06/18 06:47:03;;;;;;;3.72;2.50;;;;;;;30.16;41.30;100560.53;6336864;22;20014;-72
2021/06/18 06:49:32;;;;;;;2.50;2.30;;;;;;;30.56;40.96;100561.31;6337251;22;20018;-71
2021/06/18 06:51:57;;;;;;;2.58;2.38;;;;;;;31.35;39.51;100560.69;6337461;22;20006;-71
2021/06/18 06:54:25;;;;;;;3.67;3.35;;;;;;;32.18;37.35;100569.75;6336826;22;20524;-71
2021/06/18 06:56:55;;;;;;;3.35;2.65;;;;;;;32.51;36.16;100568.59;6336616;22;20007;-72
2021/06/18 06:59:27;;;;;;;4.18;2.40;;;;;;;32.69;35.27;100561.69;6336605;22;20003;-72
2021/06/18 07:01:52;;;;;;;5.07;3.30;;;;;;;32.03;37.88;100554.63;6335964;22;20026;-72
2021/06/18 07:04:18;;;;;;;6.40;3.22;;;;;;;32.27;37.86;100565.91;6336773;22;20281;-72
2021/06/18 07:06:44;;;;;;;3.90;3.50;;;;;;;31.29;39.48;100555.63;6336336;22;20292;-71
2021/06/18 07:09:11;;;;;;;6.70;3.80;;;;;;;30.72;40.98;100553.03;6336016;22;19998;-72
2021/06/18 07:11:42;;;;;;;4.00;3.30;;;;;;;30.48;40.60;100555.97;6335905;22;20326;-72
2021/06/18 07:14:07;;;;;;;4.90;3.13;;;;;;;29.72;42.53;100555.41;6336599;22;20007;-71
2021/06/18 07:16:33;;;;;;;3.75;2.83;;;;;;;30.12;42.92;100559.13;6336850;22;20010;-71
2021/06/18 07:19:01;;;;;;;6.50;4.13;;;;;;;30.21;42.79;100553.34;6336709;22;20046;-71
2021/06/18 07:21:27;;;;;;;7.57;4.13;;;;;;;29.98;43.93;100549.94;6336453;22;20013;-72
2021/06/18 07:23:52;;;;;;;11.63;5.25;;;;;;;29.41;45.68;100552.03;6336729;22;20082;-71
2021/06/18 07:26:18;;;;;;;7.60;4.72;;;;;;;29.14;46.20;100544.34;6336711;22;20040;-71
2021/06/18 07:28:48;;;;;;;9.02;5.75;;;;;;;28.83;47.27;100544.56;6336781;22;20015;-71
2021/06/18 07:31:18;;;;;;;7.45;5.50;;;;;;;28.92;46.70;100545.34;6336589;22;20089;-71
2021/06/18 07:33:47;;;;;;;7.30;5.18;;;;;;;29.98;44.29;100546.28;6336860;22;20015;-71
2021/06/18 07:36:13;;;;;;;6.55;5.15;;;;;;;30.33;43.27;100540.00;6336438;22;20011;-70
2021/06/18 07:38:40;;;;;;;9.00;6.07;;;;;;;29.96;44.72;100541.06;6336534;22;20010;-71
2021/06/18 07:41:06;;;;;;;6.38;5.38;;;;;;;30.24;43.32;100544.53;6335931;22;20090;-71
2021/06/18 07:43:31;;;;;;;6.43;3.80;;;;;;;30.76;43.41;100533.53;6337081;22;20066;-71
2021/06/18 07:45:57;;;;;;;6.38;4.43;;;;;;;29.97;44.31;100536.09;6336251;22;20387;-71
2021/06/18 07:48:23;;;;;;;5.75;3.97;;;;;;;30.12;44.04;100548.44;6337301;22;20010;-72
2021/06/18 07:50:51;;;;;;;6.10;4.25;;;;;;;30.78;42.86;100542.44;6336576;22;20343;-71
2021/06/18 07:53:19;;;;;;;6.45;4.55;;;;;;;31.32;41.44;100550.97;6336230;22;20007;-72
2021/06/18 07:55:49;;;;;;;9.60;4.72;;;;;;;31.68;40.78;100549.66;6336143;22;20096;-71
2021/06/18 07:58:15;;;;;;;7.07;4.30;;;;;;;30.73;43.11;100546.00;6337997;22;20034;-71
2021/06/18 08:00:46;;;;;;;7.13;4.63;;;;;;;30.99;42.11;100540.47;6338480;22;20331;-71
2021/06/18 08:03:18;;;;;;;5.97;4.15;;;;;;;31.06;41.90;100522.03;6338703;22;20085;-71
2021/06/18 08:05:49;;;;;;;4.55;3.60;;;;;;;31.08;42.30;100536.69;6338577;22;20428;-70
2021/06/18 08:08:18;;;;;;;5.40;3.65;;;;;;;32.53;39.21;100552.38;6338333;22;20334;-72
2021/06/18 08:10:49;;;;;;;5.25;3.00;;;;;;;32.25;39.49;100557.78;6338308;22;20322;-71
2021/06/18 08:13:23;;;;;;;7.28;3.83;;;;;;;32.48;39.35;100558.84;6338381;22;20373;-71
2021/06/18 08:15:49;;;;;;;5.05;3.85;;;;;;;32.62;39.04;100568.72;6337915;22;20064;-72
2021/06/18 08:18:15;;;;;;;4.45;3.28;;;;;;;34.02;36.63;100560.44;6337907;22;20002;-72
2021/06/18 08:20:40;;;;;;;3.45;2.70;;;;;;;34.30;35.14;100561.31;6338198;22;20034;-70
2021/06/18 08:23:06;;;;;;;3.53;3.22;;;;;;;34.00;36.04;100558.06;6337900;22;20330;-71
2021/06/18 08:25:35;;;;;;;6.90;3.80;;;;;;;34.03;36.67;100554.13;6337775;22;20081;-72
2021/06/18 08:28:00;;;;;;;6.75;3.72;;;;;;;33.39;37.69;100561.28;6338637;22;20007;-72
2021/06/18 08:30:30;;;;;;;8.13;3.67;;;;;;;32.85;38.63;100558.19;6337669;22;20450;-71
2021/06/18 08:32:59;;;;;;;3.45;2.92;;;;;;;32.61;39.02;100555.59;6338585;22;20011;-71
2021/06/18 08:35:30;;;;;;;11.77;3.92;;;;;;;32.68;39.11;100549.38;6337799;22;20010;-71
2021/06/18 08:38:02;;;;;;;6.63;3.35;;;;;;;32.59;39.21;100546.66;6339776;22;20082;-71
2021/06/18 08:40:33;;;;;;;6.30;3.78;;;;;;;33.55;37.40;100546.22;6337589;22;20014;-71
2021/06/18 08:43:03;;;;;;;4.30;3.17;;;;;;;33.45;37.94;100539.09;6339260;22;20002;-71
2021/06/18 08:45:32;;;;;;;4.18;3.28;;;;;;;33.47;37.24;100527.03;6311638;22;20003;-70
2021/06/18 08:48:02;;;;;;;5.00;3.58;;;;;;;33.61;36.95;100547.06;6311596;22;20438;-71
2021/06/18 08:50:31;;;;;;;4.18;3.20;;;;;;;34.30;36.32;100546.88;6311812;22;20096;-71
2021/06/18 08:53:02;;;;;;;3.70;2.92;;;;;;;34.23;36.00;100535.84;6311461;22;20010;-71
2021/06/18 08:55:30;;;;;;;5.00;3.55;;;;;;;33.36;37.55;100545.81;6312082;22;20313;-71
2021/06/18 08:57:59;;;;;;;5.60;3.50;;;;;;;33.41;37.41;100538.53;6311474;22;20007;-71
2021/06/18 09:00:29;;;;;;;4.18;3.78;;;;;;;32.60;39.36;100536.75;6285550;22;20038;-71
2021/06/18 09:03:23;;;;;;;3.55;3.13;;;;;;;32.23;40.03;100530.81;6312136;22;20011;-71
2021/06/18 09:05:52;;;;;;;3.97;3.33;;;;;;;31.74;40.26;100529.63;6311312;22;20003;-70
2021/06/18 09:08:20;;;;;;;5.90;3.95;;;;;;;31.50;41.59;100532.69;6305863;22;20435;-71
2021/06/18 09:10:51;;;;;;;6.13;3.40;;;;;;;32.19;39.76;100525.25;6311209;22;20086;-72
2021/06/18 09:13:30;;;;;;;6.43;3.50;;;;;;;32.61;38.79;100537.53;6311319;22;20011;-71
2021/06/18 09:15:59;;;;;;;5.15;3.58;;;;;;;33.56;36.54;100529.75;6338450;22;20319;-71
2021/06/18 09:18:41;;;;;;;8.45;3.75;;;;;;;33.60;36.74;100527.38;6310566;22;20045;-71
2021/06/18 09:21:09;;;;;;;6.77;4.67;;;;;;;33.70;36.29;100534.53;6311429;22;20143;-71
2021/06/18 09:23:37;;;;;;;4.15;3.78;;;;;;;32.85;37.75;100538.81;6311320;22;20240;-71
2021/06/18 09:26:15;;;;;;;4.50;3.38;;;;;;;33.22;37.10;100525.78;6338227;22;19999;-71
2021/06/18 09:29:01;;;;;;;5.18;3.50;;;;;;;32.77;38.06;100531.16;6311377;22;20003;-71
2021/06/18 09:31:30;;;;;;;4.35;3.55;;;;;;;32.73;38.14;100539.22;6311955;22;20049;-71
2021/06/18 09:33:59;;;;;;;4.13;3.72;;;;;;;33.84;36.73;100541.44;6339515;22;20010;-71
2021/06/18 09:36:27;;;;;;;5.10;3.28;;;;;;;33.92;36.32;100533.84;6311324;22;20014;-71
2021/06/18 09:38:59;;;;;;;6.95;4.40;;;;;;;34.42;35.00;100535.38;6311951;22;20010;-71
2021/06/18 09:41:38;;;;;;;4.10;3.60;;;;;;;33.73;36.86;100533.50;6322139;22;20021;-71
2021/06/18 09:44:11;;;;;;;8.85;4.03;;;;;;;34.88;34.46;100541.50;6339306;22;20414;-71
2021/06/18 09:46:40;;;;;;;7.63;4.28;;;;;;;34.40;35.16;100545.34;6339113;22;20003;-72
2021/06/18 09:49:34;;;;;;;5.38;3.45;;;;;;;34.18;35.92;100533.72;6339216;22;20086;-71
2021/06/18 09:52:21;;;;;;;4.93;4.22;;;;;;;34.87;34.72;100531.28;6339727;22;20446;-71
2021/06/18 09:54:55;;;;;;;5.78;3.80;;;;;;;33.98;35.38;100533.91;6339206;22;20443;-72
2021/06/18 09:57:39;;;;;;;5.88;3.72;;;;;;;32.99;37.19;100530.59;6339232;22;20007;-72
2021/06/18 10:00:19;;;;;;;4.75;3.50;;;;;;;32.62;38.15;100525.50;6340740;22;20003;-72
2021/06/18 10:02:55;;;;;;;4.07;3.33;;;;;;;32.89;38.19;100520.53;6339494;22;20007;-73
2021/06/18 10:05:36;;;;;;;4.53;3.97;;;;;;;32.98;38.81;100514.59;6339107;22;20036;-72
2021/06/18 10:08:10;;;;;;;7.72;5.18;;;;;;;33.16;37.85;100513.44;6340566;22;20326;-73
2021/06/18 10:10:40;;;;;;;5.03;3.95;;;;;;;32.06;40.18;100519.88;6338972;22;20014;-72
2021/06/18 10:13:08;;;;;;;10.20;4.25;;;;;;;32.32;40.13;100504.72;6339575;22;20007;-71
2021/06/18 10:15:38;;;;;;;6.32;4.07;;;;;;;32.01;40.33;100511.16;6339373;22;20057;-72
2021/06/18 10:18:11;;;;;;;8.35;4.78;;;;;;;31.83;40.58;100500.75;6338950;22;20426;-72
2021/06/18 10:20:40;;;;;;;5.93;3.70;;;;;;;32.73;38.80;100499.69;6338375;22;20011;-73
2021/06/18 10:23:12;;;;;;;6.15;4.38;;;;;;;32.87;39.40;100489.34;6338628;22;20013;-72
2021/06/18 10:25:59;;;;;;;6.38;3.60;;;;;;;33.36;38.76;100499.69;6338912;22;19999;-71
2021/06/18 10:28:32;;;;;;;5.22;4.20;;;;;;;32.36;40.24;100490.16;6340622;22;20339;-72
2021/06/18 10:31:09;;;;;;;5.03;3.72;;;;;;;32.78;39.42;100496.06;6338998;22;20010;-72
2021/06/18 10:33:37;;;;;;;5.07;3.53;;;;;;;33.00;38.00;100483.16;6338875;22;19999;-73
2021/06/18 10:36:14;;;;;;;6.50;3.67;;;;;;;32.91;37.76;100463.97;6339994;22;20111;-75
2021/06/18 10:38:48;;;;;;;4.57;3.65;;;;;;;32.54;39.28;100487.69;6338794;22;20003;-73
2021/06/18 10:41:16;;;;;;;4.88;3.65;;;;;;;32.95;38.65;100457.97;6338390;22;20017;-73
2021/06/18 10:43:45;;;;;;;4.95;4.15;;;;;;;32.68;39.53;100474.50;6338834;22;20013;-73
2021/06/18 10:46:18;;;;;;;4.05;3.75;;;;;;;32.73;39.74;100476.63;6339676;22;20410;-71
2021/06/18 10:48:50;;;;;;;4.30;3.90;;;;;;;32.60;40.10;100479.16;6338453;22;20047;-72
2021/06/18 10:51:32;;;;;;;4.28;3.75;;;;;;;33.17;39.06;100475.44;6338623;22;20014;-71
2021/06/18 10:54:04;;;;;;;10.80;4.28;;;;;;;33.68;38.46;100473.66;6339142;22;20045;-71
2021/06/18 10:56:48;;;;;;;6.03;3.75;;;;;;;32.25;40.87;100465.66;6338895;22;20058;-71
2021/06/18 10:59:53;;;;;;;4.25;3.85;;;;;;;32.68;40.67;100457.22;6338652;22;20010;-71
2021/06/18 11:02:30;;;;;;;8.35;3.35;;;;;;;32.14;43.34;100465.53;6188873;23;20052;-71
2021/06/18 11:05:08;;;;;;;7.32;3.58;;;;;;;32.41;43.00;100475.03;6188593;23;20008;-71
2021/06/18 11:07:39;;;;;;;4.25;3.00;;;;;;;32.59;41.91;100469.69;6294127;22;20340;-72
2021/06/18 11:10:27;;;;;;;9.00;3.20;;;;;;;32.28;42.40;100481.94;6338193;22;20482;-71
2021/06/18 11:13:01;;;;;;;2.70;2.50;;;;;;;32.21;42.47;100459.34;6338767;22;20033;-71
2021/06/18 11:15:29;;;;;;;3.67;3.33;;;;;;;32.53;41.83;100463.09;6337629;22;20007;-71
2021/06/18 11:18:19;;;;;;;5.25;2.60;;;;;;;32.64;41.31;100456.63;6338685;22;20430;-71
2021/06/18 11:20:51;;;;;;;2.97;2.67;;;;;;;32.08;42.30;100450.31;6338492;22;20427;-71
2021/06/18 11:23:22;;;;;;;2.10;2.00;;;;;;;31.68;43.69;100457.63;6339963;22;20006;-71
2021/06/18 11:25:54;;;;;;;4.00;1.95;;;;;;;31.36;44.29;100447.25;6338181;22;20110;-72
2021/06/18 11:28:19;;;;;;;3.63;2.25;;;;;;;31.85;43.15;100459.97;6338868;22;20093;-71
2021/06/18 11:30:58;;;;;;;3.80;2.28;;;;;;;32.24;42.10;100455.47;6338013;22;20339;-72
2021/06/18 11:33:37;;;;;;;2.92;2.58;;;;;;;32.50;41.18;100423.03;6338211;22;20042;-71
2021/06/18 11:36:37;;;;;;;3.60;2.30;;;;;;;32.04;41.11;100447.66;6338556;22;20011;-72
2021/06/18 11:39:03;;;;;;;2.40;2.20;;;;;;;31.91;41.64;100446.47;6337729;22;20009;-72
2021/06/18 11:41:32;;;;;;;3.20;2.63;;;;;;;31.57;42.01;100437.38;6337480;22;20015;-71